Terminal Aerodrome Forecast
Issued by NWS

Home | Current Version | Previous Version | Text Only | Print | Product List | Glossary On
Versions: 1 2 3 4 5 6 7 8 9 10 11 12 13 14 15 16 17 18 19 20 21 22 23
000
FTUS43 KDMX 241607 AAB
TAFFOD
TAF AMD
KFOD 241607Z 2416/2512 32005KT P6SM BKN015 OVC060
     FM241700 31006KT P6SM FEW015 SCT150
     FM241800 34007KT P6SM BKN040
     FM242200 35005KT P6SM BKN140=

USA.gov is the U.S. government's official web portal to all federal, state and local government web resources and services.